sensor_id;sensor_type;location;lat;lon;timestamp;P1;durP1;ratioP1;P2;durP2;ratioP2
47589;SDS011;33316;52.298;9.056;2023-01-16T00:01:18;2.97;;;0.70;;
47589;SDS011;33316;52.298;9.056;2023-01-16T00:03:45;1.65;;;0.57;;
47589;SDS011;33316;52.298;9.056;2023-01-16T00:06:12;1.15;;;0.50;;
47589;SDS011;33316;52.298;9.056;2023-01-16T00:08:40;1.42;;;0.57;;
47589;SDS011;33316;52.298;9.056;2023-01-16T00:11:08;1.67;;;0.63;;
47589;SDS011;33316;52.298;9.056;2023-01-16T00:13:38;2.58;;;0.68;;
47589;SDS011;33316;52.298;9.056;2023-01-16T00:16:05;1.98;;;0.55;;
47589;SDS011;33316;52.298;9.056;2023-01-16T00:18:33;1.75;;;0.60;;
47589;SDS011;33316;52.298;9.056;2023-01-16T00:21:00;1.58;;;0.60;;
47589;SDS011;33316;52.298;9.056;2023-01-16T00:23:27;2.95;;;0.80;;
47589;SDS011;33316;52.298;9.056;2023-01-16T00:25:53;1.05;;;0.50;;
47589;SDS011;33316;52.298;9.056;2023-01-16T00:28:21;1.88;;;0.77;;
47589;SDS011;33316;52.298;9.056;2023-01-16T00:30:48;1.75;;;0.50;;
47589;SDS011;33316;52.298;9.056;2023-01-16T00:33:15;1.60;;;0.50;;
47589;SDS011;33316;52.298;9.056;2023-01-16T00:35:43;1.23;;;0.32;;
47589;SDS011;33316;52.298;9.056;2023-01-16T00:38:10;0.98;;;0.60;;
47589;SDS011;33316;52.298;9.056;2023-01-16T00:40:36;2.15;;;0.50;;
47589;SDS011;33316;52.298;9.056;2023-01-16T00:43:03;1.40;;;0.40;;
47589;SDS011;33316;52.298;9.056;2023-01-16T00:45:31;1.90;;;0.70;;
47589;SDS011;33316;52.298;9.056;2023-01-16T00:47:58;2.17;;;0.40;;
47589;SDS011;33316;52.298;9.056;2023-01-16T00:50:25;2.47;;;0.88;;
47589;SDS011;33316;52.298;9.056;2023-01-16T00:52:51;2.13;;;0.80;;
47589;SDS011;33316;52.298;9.056;2023-01-16T00:55:18;2.20;;;0.60;;
47589;SDS011;33316;52.298;9.056;2023-01-16T00:57:45;2.85;;;0.85;;
47589;SDS011;33316;52.298;9.056;2023-01-16T01:00:12;2.15;;;0.68;;
47589;SDS011;33316;52.298;9.056;2023-01-16T01:02:40;2.30;;;0.68;;
47589;SDS011;33316;52.298;9.056;2023-01-16T01:05:07;2.53;;;0.50;;
47589;SDS011;33316;52.298;9.056;2023-01-16T01:07:34;0.73;;;0.40;;
47589;SDS011;33316;52.298;9.056;2023-01-16T01:10:01;1.83;;;0.40;;
47589;SDS011;33316;52.298;9.056;2023-01-16T01:12:28;3.15;;;0.52;;
47589;SDS011;33316;52.298;9.056;2023-01-16T01:14:55;0.98;;;0.40;;
47589;SDS011;33316;52.298;9.056;2023-01-16T01:17:22;0.68;;;0.40;;
47589;SDS011;33316;52.298;9.056;2023-01-16T01:19:50;1.15;;;0.60;;
47589;SDS011;33316;52.298;9.056;2023-01-16T01:22:17;0.65;;;0.45;;
47589;SDS011;33316;52.298;9.056;2023-01-16T01:24:46;1.10;;;0.50;;
47589;SDS011;33316;52.298;9.056;2023-01-16T01:27:14;2.42;;;0.55;;
47589;SDS011;33316;52.298;9.056;2023-01-16T01:29:41;1.63;;;0.50;;
47589;SDS011;33316;52.298;9.056;2023-01-16T01:32:08;0.90;;;0.43;;
47589;SDS011;33316;52.298;9.056;2023-01-16T01:34:34;0.80;;;0.40;;
47589;SDS011;33316;52.298;9.056;2023-01-16T01:37:03;0.55;;;0.40;;
47589;SDS011;33316;52.298;9.056;2023-01-16T01:39:31;2.50;;;0.50;;
47589;SDS011;33316;52.298;9.056;2023-01-16T01:41:58;0.60;;;0.40;;
47589;SDS011;33316;52.298;9.056;2023-01-16T01:47:15;1.00;;;0.40;;
47589;SDS011;33316;52.298;9.056;2023-01-16T01:49:46;1.35;;;0.60;;
47589;SDS011;33316;52.298;9.056;2023-01-16T01:52:15;2.47;;;0.40;;
47589;SDS011;33316;52.298;9.056;2023-01-16T01:54:44;1.38;;;0.43;;
47589;SDS011;33316;52.298;9.056;2023-01-16T01:57:17;2.45;;;0.50;;
47589;SDS011;33316;52.298;9.056;2023-01-16T01:59:51;1.10;;;0.50;;
47589;SDS011;33316;52.298;9.056;2023-01-16T02:02:23;0.98;;;0.40;;
47589;SDS011;33316;52.298;9.056;2023-01-16T02:04:54;2.40;;;0.50;;
47589;SDS011;33316;52.298;9.056;2023-01-16T02:07:24;1.02;;;0.40;;
47589;SDS011;33316;52.298;9.056;2023-01-16T02:09:55;0.63;;;0.40;;
47589;SDS011;33316;52.298;9.056;2023-01-16T02:12:29;0.55;;;0.40;;
47589;SDS011;33316;52.298;9.056;2023-01-16T02:14:57;1.02;;;0.40;;
47589;SDS011;33316;52.298;9.056;2023-01-16T02:17:24;1.20;;;0.52;;
47589;SDS011;33316;52.298;9.056;2023-01-16T02:20:19;1.15;;;0.60;;
47589;SDS011;33316;52.298;9.056;2023-01-16T02:32:12;1.02;;;0.50;;
47589;SDS011;33316;52.298;9.056;2023-01-16T02:34:54;1.83;;;0.38;;
47589;SDS011;33316;52.298;9.056;2023-01-16T02:37:30;1.08;;;0.40;;
47589;SDS011;33316;52.298;9.056;2023-01-16T02:40:07;1.88;;;0.50;;
47589;SDS011;33316;52.298;9.056;2023-01-16T02:42:56;2.25;;;0.55;;
47589;SDS011;33316;52.298;9.056;2023-01-16T02:45:29;0.93;;;0.50;;
47589;SDS011;33316;52.298;9.056;2023-01-16T02:48:08;1.15;;;0.47;;
47589;SDS011;33316;52.298;9.056;2023-01-16T02:50:40;2.00;;;0.50;;
47589;SDS011;33316;52.298;9.056;2023-01-16T02:53:14;1.38;;;0.50;;
47589;SDS011;33316;52.298;9.056;2023-01-16T02:55:46;0.55;;;0.30;;
47589;SDS011;33316;52.298;9.056;2023-01-16T02:58:16;1.48;;;0.55;;
47589;SDS011;33316;52.298;9.056;2023-01-16T03:00:48;2.72;;;0.40;;
47589;SDS011;33316;52.298;9.056;2023-01-16T03:03:23;1.95;;;0.50;;
47589;SDS011;33316;52.298;9.056;2023-01-16T03:09:12;1.75;;;0.50;;
47589;SDS011;33316;52.298;9.056;2023-01-16T03:11:51;1.95;;;0.50;;
47589;SDS011;33316;52.298;9.056;2023-01-16T03:14:28;1.02;;;0.47;;
47589;SDS011;33316;52.298;9.056;2023-01-16T03:17:13;0.85;;;0.60;;
47589;SDS011;33316;52.298;9.056;2023-01-16T03:19:52;1.38;;;0.75;;
47589;SDS011;33316;52.298;9.056;2023-01-16T03:22:29;0.53;;;0.40;;
47589;SDS011;33316;52.298;9.056;2023-01-16T03:25:10;0.70;;;0.45;;
47589;SDS011;33316;52.298;9.056;2023-01-16T03:27:48;2.42;;;0.70;;
47589;SDS011;33316;52.298;9.056;2023-01-16T03:30:23;1.30;;;0.45;;
47589;SDS011;33316;52.298;9.056;2023-01-16T03:32:56;0.88;;;0.40;;
47589;SDS011;33316;52.298;9.056;2023-01-16T03:35:31;0.50;;;0.40;;
47589;SDS011;33316;52.298;9.056;2023-01-16T03:38:04;0.93;;;0.40;;
47589;SDS011;33316;52.298;9.056;2023-01-16T03:40:35;1.17;;;0.40;;
47589;SDS011;33316;52.298;9.056;2023-01-16T03:43:06;1.35;;;0.40;;
47589;SDS011;33316;52.298;9.056;2023-01-16T03:45:37;2.47;;;0.77;;
47589;SDS011;33316;52.298;9.056;2023-01-16T03:50:37;0.93;;;0.38;;
47589;SDS011;33316;52.298;9.056;2023-01-16T03:53:07;0.88;;;0.43;;
47589;SDS011;33316;52.298;9.056;2023-01-16T03:55:38;1.65;;;0.52;;
47589;SDS011;33316;52.298;9.056;2023-01-16T03:58:10;1.52;;;0.55;;
47589;SDS011;33316;52.298;9.056;2023-01-16T04:00:43;1.15;;;0.50;;
47589;SDS011;33316;52.298;9.056;2023-01-16T04:03:16;1.13;;;0.50;;
47589;SDS011;33316;52.298;9.056;2023-01-16T04:05:51;1.00;;;0.65;;
47589;SDS011;33316;52.298;9.056;2023-01-16T04:08:22;1.38;;;0.60;;
47589;SDS011;33316;52.298;9.056;2023-01-16T04:10:53;0.80;;;0.40;;
47589;SDS011;33316;52.298;9.056;2023-01-16T04:13:21;1.90;;;0.50;;
47589;SDS011;33316;52.298;9.056;2023-01-16T04:18:20;0.32;;;0.30;;
47589;SDS011;33316;52.298;9.056;2023-01-16T04:23:18;0.52;;;0.38;;
47589;SDS011;33316;52.298;9.056;2023-01-16T04:25:45;0.85;;;0.30;;
47589;SDS011;33316;52.298;9.056;2023-01-16T04:28:12;0.63;;;0.32;;
47589;SDS011;33316;52.298;9.056;2023-01-16T04:30:38;2.80;;;1.27;;
47589;SDS011;33316;52.298;9.056;2023-01-16T04:33:05;4.93;;;2.05;;
47589;SDS011;33316;52.298;9.056;2023-01-16T04:35:32;3.63;;;1.98;;
47589;SDS011;33316;52.298;9.056;2023-01-16T04:38:01;4.18;;;2.00;;
47589;SDS011;33316;52.298;9.056;2023-01-16T04:40:28;2.15;;;1.10;;
47589;SDS011;33316;52.298;9.056;2023-01-16T04:42:55;1.08;;;0.60;;
47589;SDS011;33316;52.298;9.056;2023-01-16T04:45:22;1.25;;;0.60;;
47589;SDS011;33316;52.298;9.056;2023-01-16T04:47:49;1.80;;;0.50;;
47589;SDS011;33316;52.298;9.056;2023-01-16T04:50:17;0.88;;;0.50;;
47589;SDS011;33316;52.298;9.056;2023-01-16T04:52:44;2.60;;;0.50;;
47589;SDS011;33316;52.298;9.056;2023-01-16T04:55:13;1.13;;;0.60;;
47589;SDS011;33316;52.298;9.056;2023-01-16T04:57:40;1.20;;;0.50;;
47589;SDS011;33316;52.298;9.056;2023-01-16T05:00:07;1.90;;;0.40;;
47589;SDS011;33316;52.298;9.056;2023-01-16T05:02:36;0.40;;;0.40;;
47589;SDS011;33316;52.298;9.056;2023-01-16T05:05:03;0.60;;;0.40;;
47589;SDS011;33316;52.298;9.056;2023-01-16T05:07:31;1.65;;;0.40;;
47589;SDS011;33316;52.298;9.056;2023-01-16T05:09:57;1.48;;;0.43;;
47589;SDS011;33316;52.298;9.056;2023-01-16T05:12:25;1.55;;;0.40;;
47589;SDS011;33316;52.298;9.056;2023-01-16T05:14:52;1.48;;;0.45;;
47589;SDS011;33316;52.298;9.056;2023-01-16T05:17:19;1.38;;;0.63;;
47589;SDS011;33316;52.298;9.056;2023-01-16T05:19:49;1.70;;;0.50;;
47589;SDS011;33316;52.298;9.056;2023-01-16T05:22:15;0.88;;;0.40;;
47589;SDS011;33316;52.298;9.056;2023-01-16T05:24:42;1.00;;;0.68;;
47589;SDS011;33316;52.298;9.056;2023-01-16T05:27:09;0.95;;;0.40;;
47589;SDS011;33316;52.298;9.056;2023-01-16T05:29:37;1.02;;;0.60;;
47589;SDS011;33316;52.298;9.056;2023-01-16T05:32:04;1.25;;;0.50;;
47589;SDS011;33316;52.298;9.056;2023-01-16T05:34:30;0.70;;;0.43;;
47589;SDS011;33316;52.298;9.056;2023-01-16T05:36:57;0.47;;;0.40;;
47589;SDS011;33316;52.298;9.056;2023-01-16T05:39:24;1.73;;;0.52;;
47589;SDS011;33316;52.298;9.056;2023-01-16T05:41:50;0.85;;;0.45;;
47589;SDS011;33316;52.298;9.056;2023-01-16T05:44:17;1.33;;;0.70;;
47589;SDS011;33316;52.298;9.056;2023-01-16T05:46:45;1.52;;;0.80;;
47589;SDS011;33316;52.298;9.056;2023-01-16T05:49:12;1.05;;;0.57;;
47589;SDS011;33316;52.298;9.056;2023-01-16T05:51:39;1.63;;;0.60;;
47589;SDS011;33316;52.298;9.056;2023-01-16T05:54:08;3.03;;;0.60;;
47589;SDS011;33316;52.298;9.056;2023-01-16T05:56:36;1.73;;;0.52;;
47589;SDS011;33316;52.298;9.056;2023-01-16T05:59:03;1.73;;;0.40;;
47589;SDS011;33316;52.298;9.056;2023-01-16T06:01:29;1.20;;;0.60;;
47589;SDS011;33316;52.298;9.056;2023-01-16T06:03:57;1.60;;;0.60;;
47589;SDS011;33316;52.298;9.056;2023-01-16T06:06:24;0.80;;;0.55;;
47589;SDS011;33316;52.298;9.056;2023-01-16T06:08:51;1.10;;;0.50;;
47589;SDS011;33316;52.298;9.056;2023-01-16T06:11:17;0.85;;;0.60;;
47589;SDS011;33316;52.298;9.056;2023-01-16T06:13:45;0.35;;;0.35;;
47589;SDS011;33316;52.298;9.056;2023-01-16T06:16:12;0.77;;;0.40;;
47589;SDS011;33316;52.298;9.056;2023-01-16T06:18:39;1.08;;;0.50;;
47589;SDS011;33316;52.298;9.056;2023-01-16T06:21:07;1.25;;;0.50;;
47589;SDS011;33316;52.298;9.056;2023-01-16T06:23:33;1.55;;;0.40;;
47589;SDS011;33316;52.298;9.056;2023-01-16T06:26:00;0.45;;;0.30;;
47589;SDS011;33316;52.298;9.056;2023-01-16T06:28:27;1.33;;;0.47;;
47589;SDS011;33316;52.298;9.056;2023-01-16T06:30:54;0.85;;;0.52;;
47589;SDS011;33316;52.298;9.056;2023-01-16T06:33:21;0.98;;;0.50;;
47589;SDS011;33316;52.298;9.056;2023-01-16T06:35:47;0.85;;;0.40;;
47589;SDS011;33316;52.298;9.056;2023-01-16T06:38:16;0.30;;;0.30;;
47589;SDS011;33316;52.298;9.056;2023-01-16T06:40:43;0.47;;;0.30;;
47589;SDS011;33316;52.298;9.056;2023-01-16T06:43:10;0.57;;;0.40;;
47589;SDS011;33316;52.298;9.056;2023-01-16T06:45:37;1.00;;;0.30;;
47589;SDS011;33316;52.298;9.056;2023-01-16T06:48:03;0.90;;;0.50;;
47589;SDS011;33316;52.298;9.056;2023-01-16T06:50:30;1.52;;;0.80;;
47589;SDS011;33316;52.298;9.056;2023-01-16T06:52:57;0.95;;;0.60;;
47589;SDS011;33316;52.298;9.056;2023-01-16T06:55:25;1.63;;;0.70;;
47589;SDS011;33316;52.298;9.056;2023-01-16T06:57:53;0.82;;;0.45;;
47589;SDS011;33316;52.298;9.056;2023-01-16T07:00:20;1.65;;;0.70;;
47589;SDS011;33316;52.298;9.056;2023-01-16T07:02:49;1.30;;;0.50;;
47589;SDS011;33316;52.298;9.056;2023-01-16T07:05:19;1.50;;;0.47;;
47589;SDS011;33316;52.298;9.056;2023-01-16T07:07:47;1.48;;;0.63;;
47589;SDS011;33316;52.298;9.056;2023-01-16T07:10:13;0.73;;;0.50;;
47589;SDS011;33316;52.298;9.056;2023-01-16T07:12:42;1.30;;;0.60;;
47589;SDS011;33316;52.298;9.056;2023-01-16T07:15:09;1.02;;;0.40;;
47589;SDS011;33316;52.298;9.056;2023-01-16T07:17:53;2.03;;;0.60;;
47589;SDS011;33316;52.298;9.056;2023-01-16T07:20:37;0.60;;;0.50;;
47589;SDS011;33316;52.298;9.056;2023-01-16T07:23:24;1.30;;;0.40;;
47589;SDS011;33316;52.298;9.056;2023-01-16T07:25:53;0.93;;;0.57;;
47589;SDS011;33316;52.298;9.056;2023-01-16T07:28:23;1.67;;;0.70;;
47589;SDS011;33316;52.298;9.056;2023-01-16T07:30:50;1.50;;;0.60;;
47589;SDS011;33316;52.298;9.056;2023-01-16T07:33:18;1.33;;;0.50;;
47589;SDS011;33316;52.298;9.056;2023-01-16T07:35:44;1.00;;;0.52;;
47589;SDS011;33316;52.298;9.056;2023-01-16T07:38:11;1.17;;;0.50;;
47589;SDS011;33316;52.298;9.056;2023-01-16T07:40:38;0.93;;;0.60;;
47589;SDS011;33316;52.298;9.056;2023-01-16T07:43:04;0.73;;;0.52;;
47589;SDS011;33316;52.298;9.056;2023-01-16T07:45:32;1.73;;;0.60;;
47589;SDS011;33316;52.298;9.056;2023-01-16T07:47:59;1.27;;;0.40;;
47589;SDS011;33316;52.298;9.056;2023-01-16T07:50:26;1.83;;;0.57;;
47589;SDS011;33316;52.298;9.056;2023-01-16T07:52:53;1.00;;;0.50;;
47589;SDS011;33316;52.298;9.056;2023-01-16T07:55:20;1.33;;;0.60;;
47589;SDS011;33316;52.298;9.056;2023-01-16T07:58:00;1.85;;;0.60;;
47589;SDS011;33316;52.298;9.056;2023-01-16T08:00:27;2.55;;;0.60;;
47589;SDS011;33316;52.298;9.056;2023-01-16T08:02:55;2.83;;;0.60;;
47589;SDS011;33316;52.298;9.056;2023-01-16T08:05:24;0.75;;;0.50;;
47589;SDS011;33316;52.298;9.056;2023-01-16T08:07:52;0.68;;;0.50;;
47589;SDS011;33316;52.298;9.056;2023-01-16T08:10:20;1.77;;;0.50;;
47589;SDS011;33316;52.298;9.056;2023-01-16T08:12:46;2.15;;;0.50;;
47589;SDS011;33316;52.298;9.056;2023-01-16T08:15:13;2.67;;;0.70;;
47589;SDS011;33316;52.298;9.056;2023-01-16T08:17:40;1.13;;;0.75;;
47589;SDS011;33316;52.298;9.056;2023-01-16T08:20:09;2.70;;;1.00;;
47589;SDS011;33316;52.298;9.056;2023-01-16T08:22:40;1.98;;;0.90;;
47589;SDS011;33316;52.298;9.056;2023-01-16T08:25:08;2.05;;;0.90;;
47589;SDS011;33316;52.298;9.056;2023-01-16T08:27:35;2.20;;;0.98;;
47589;SDS011;33316;52.298;9.056;2023-01-16T08:30:02;2.53;;;1.00;;
47589;SDS011;33316;52.298;9.056;2023-01-16T08:32:29;1.60;;;0.82;;
47589;SDS011;33316;52.298;9.056;2023-01-16T08:34:56;1.35;;;0.77;;
47589;SDS011;33316;52.298;9.056;2023-01-16T08:37:24;1.75;;;0.90;;
47589;SDS011;33316;52.298;9.056;2023-01-16T08:39:54;2.30;;;0.90;;
47589;SDS011;33316;52.298;9.056;2023-01-16T08:42:20;1.98;;;0.90;;
47589;SDS011;33316;52.298;9.056;2023-01-16T08:45:05;2.00;;;0.90;;
47589;SDS011;33316;52.298;9.056;2023-01-16T08:47:51;1.45;;;0.80;;
47589;SDS011;33316;52.298;9.056;2023-01-16T08:50:35;1.45;;;0.85;;
47589;SDS011;33316;52.298;9.056;2023-01-16T08:53:20;1.52;;;0.70;;
47589;SDS011;33316;52.298;9.056;2023-01-16T08:55:47;1.42;;;0.70;;
47589;SDS011;33316;52.298;9.056;2023-01-16T08:58:14;0.65;;;0.50;;
47589;SDS011;33316;52.298;9.056;2023-01-16T09:00:45;1.00;;;0.70;;
47589;SDS011;33316;52.298;9.056;2023-01-16T09:03:12;1.95;;;0.82;;
47589;SDS011;33316;52.298;9.056;2023-01-16T09:05:39;4.15;;;0.80;;
47589;SDS011;33316;52.298;9.056;2023-01-16T09:08:05;0.88;;;0.70;;
47589;SDS011;33316;52.298;9.056;2023-01-16T09:10:34;1.48;;;0.60;;
47589;SDS011;33316;52.298;9.056;2023-01-16T09:13:00;1.15;;;0.60;;
47589;SDS011;33316;52.298;9.056;2023-01-16T09:15:46;2.30;;;0.90;;
47589;SDS011;33316;52.298;9.056;2023-01-16T09:18:13;2.25;;;1.13;;
47589;SDS011;33316;52.298;9.056;2023-01-16T09:20:39;2.05;;;1.08;;
47589;SDS011;33316;52.298;9.056;2023-01-16T09:23:06;3.45;;;0.98;;
47589;SDS011;33316;52.298;9.056;2023-01-16T09:25:34;1.52;;;0.70;;
47589;SDS011;33316;52.298;9.056;2023-01-16T09:28:01;1.42;;;0.70;;
47589;SDS011;33316;52.298;9.056;2023-01-16T09:30:28;1.23;;;0.88;;
47589;SDS011;33316;52.298;9.056;2023-01-16T09:32:55;2.75;;;0.65;;
47589;SDS011;33316;52.298;9.056;2023-01-16T09:35:21;0.77;;;0.40;;
47589;SDS011;33316;52.298;9.056;2023-01-16T09:37:48;1.75;;;0.60;;
47589;SDS011;33316;52.298;9.056;2023-01-16T09:40:16;0.98;;;0.60;;
47589;SDS011;33316;52.298;9.056;2023-01-16T09:42:55;3.10;;;0.70;;
47589;SDS011;33316;52.298;9.056;2023-01-16T09:48:15;0.93;;;0.40;;
47589;SDS011;33316;52.298;9.056;2023-01-16T09:50:49;1.13;;;0.60;;
47589;SDS011;33316;52.298;9.056;2023-01-16T09:53:20;1.98;;;0.60;;
47589;SDS011;33316;52.298;9.056;2023-01-16T09:56:14;2.75;;;0.90;;
47589;SDS011;33316;52.298;9.056;2023-01-16T09:59:02;1.48;;;0.40;;
47589;SDS011;33316;52.298;9.056;2023-01-16T10:01:39;1.05;;;0.52;;
47589;SDS011;33316;52.298;9.056;2023-01-16T10:04:14;1.67;;;0.40;;
47589;SDS011;33316;52.298;9.056;2023-01-16T10:06:47;1.13;;;0.50;;
47589;SDS011;33316;52.298;9.056;2023-01-16T10:09:22;1.52;;;0.60;;
47589;SDS011;33316;52.298;9.056;2023-01-16T10:11:57;1.20;;;0.73;;
47589;SDS011;33316;52.298;9.056;2023-01-16T10:14:33;3.20;;;0.60;;
47589;SDS011;33316;52.298;9.056;2023-01-16T10:17:18;1.60;;;0.60;;
47589;SDS011;33316;52.298;9.056;2023-01-16T10:20:02;0.98;;;0.60;;
47589;SDS011;33316;52.298;9.056;2023-01-16T10:22:46;1.77;;;0.70;;
47589;SDS011;33316;52.298;9.056;2023-01-16T10:25:26;2.40;;;0.40;;
47589;SDS011;33316;52.298;9.056;2023-01-16T10:28:02;2.90;;;0.60;;
47589;SDS011;33316;52.298;9.056;2023-01-16T10:30:40;1.77;;;0.50;;
47589;SDS011;33316;52.298;9.056;2023-01-16T10:33:19;2.85;;;0.50;;
47589;SDS011;33316;52.298;9.056;2023-01-16T10:35:55;1.25;;;0.50;;
47589;SDS011;33316;52.298;9.056;2023-01-16T10:38:25;3.45;;;0.63;;
47589;SDS011;33316;52.298;9.056;2023-01-16T10:41:02;2.90;;;0.50;;
47589;SDS011;33316;52.298;9.056;2023-01-16T10:43:50;5.07;;;0.70;;
47589;SDS011;33316;52.298;9.056;2023-01-16T10:46:36;2.20;;;0.63;;
47589;SDS011;33316;52.298;9.056;2023-01-16T10:49:22;2.75;;;0.80;;
47589;SDS011;33316;52.298;9.056;2023-01-16T10:51:55;1.38;;;0.50;;
47589;SDS011;33316;52.298;9.056;2023-01-16T10:54:26;2.20;;;0.60;;
47589;SDS011;33316;52.298;9.056;2023-01-16T10:56:53;1.27;;;0.50;;
47589;SDS011;33316;52.298;9.056;2023-01-16T10:59:25;0.80;;;0.50;;
47589;SDS011;33316;52.298;9.056;2023-01-16T11:04:23;1.15;;;0.43;;
47589;SDS011;33316;52.298;9.056;2023-01-16T11:07:12;1.50;;;0.60;;
47589;SDS011;33316;52.298;9.056;2023-01-16T11:09:40;1.95;;;0.52;;
47589;SDS011;33316;52.298;9.056;2023-01-16T11:12:09;2.45;;;0.50;;
47589;SDS011;33316;52.298;9.056;2023-01-16T11:14:58;2.83;;;0.47;;
47589;SDS011;33316;52.298;9.056;2023-01-16T11:17:50;1.80;;;0.40;;
47589;SDS011;33316;52.298;9.056;2023-01-16T11:20:36;1.80;;;0.45;;
47589;SDS011;33316;52.298;9.056;2023-01-16T11:23:05;1.40;;;0.30;;
47589;SDS011;33316;52.298;9.056;2023-01-16T11:25:41;3.40;;;0.68;;
47589;SDS011;33316;52.298;9.056;2023-01-16T11:28:12;1.58;;;0.50;;
47589;SDS011;33316;52.298;9.056;2023-01-16T11:30:44;2.63;;;0.95;;
47589;SDS011;33316;52.298;9.056;2023-01-16T11:33:15;1.15;;;0.40;;
47589;SDS011;33316;52.298;9.056;2023-01-16T11:35:46;2.13;;;0.70;;
47589;SDS011;33316;52.298;9.056;2023-01-16T11:38:20;1.35;;;0.50;;
47589;SDS011;33316;52.298;9.056;2023-01-16T11:40:48;1.17;;;0.50;;
47589;SDS011;33316;52.298;9.056;2023-01-16T11:43:22;0.60;;;0.57;;
47589;SDS011;33316;52.298;9.056;2023-01-16T11:46:20;0.68;;;0.50;;
47589;SDS011;33316;52.298;9.056;2023-01-16T11:49:03;0.70;;;0.50;;
47589;SDS011;33316;52.298;9.056;2023-01-16T11:51:39;1.52;;;0.50;;
47589;SDS011;33316;52.298;9.056;2023-01-16T11:54:10;1.92;;;1.02;;
47589;SDS011;33316;52.298;9.056;2023-01-16T11:56:50;2.00;;;0.52;;
47589;SDS011;33316;52.298;9.056;2023-01-16T12:02:24;4.35;;;0.60;;
47589;SDS011;33316;52.298;9.056;2023-01-16T12:05:12;0.52;;;0.30;;
47589;SDS011;33316;52.298;9.056;2023-01-16T12:08:09;1.58;;;0.50;;
47589;SDS011;33316;52.298;9.056;2023-01-16T12:10:51;1.75;;;0.32;;
47589;SDS011;33316;52.298;9.056;2023-01-16T12:13:25;1.00;;;0.45;;
47589;SDS011;33316;52.298;9.056;2023-01-16T12:16:20;2.42;;;0.50;;
47589;SDS011;33316;52.298;9.056;2023-01-16T12:19:01;1.38;;;0.50;;
47589;SDS011;33316;52.298;9.056;2023-01-16T12:24:16;1.35;;;0.47;;
47589;SDS011;33316;52.298;9.056;2023-01-16T12:27:04;1.38;;;0.60;;
47589;SDS011;33316;52.298;9.056;2023-01-16T12:29:43;2.33;;;0.70;;
47589;SDS011;33316;52.298;9.056;2023-01-16T12:32:25;1.77;;;0.60;;
47589;SDS011;33316;52.298;9.056;2023-01-16T12:35:13;0.88;;;0.57;;
47589;SDS011;33316;52.298;9.056;2023-01-16T12:37:58;3.00;;;0.60;;
47589;SDS011;33316;52.298;9.056;2023-01-16T12:40:35;1.80;;;0.60;;
47589;SDS011;33316;52.298;9.056;2023-01-16T12:43:48;1.33;;;0.55;;
47589;SDS011;33316;52.298;9.056;2023-01-16T12:46:23;0.93;;;0.47;;
47589;SDS011;33316;52.298;9.056;2023-01-16T12:49:02;0.77;;;0.47;;
47589;SDS011;33316;52.298;9.056;2023-01-16T12:51:45;1.30;;;0.35;;
47589;SDS011;33316;52.298;9.056;2023-01-16T12:54:27;1.02;;;0.60;;
47589;SDS011;33316;52.298;9.056;2023-01-16T13:00:17;1.88;;;0.40;;
47589;SDS011;33316;52.298;9.056;2023-01-16T13:02:51;0.65;;;0.30;;
47589;SDS011;33316;52.298;9.056;2023-01-16T13:05:22;0.57;;;0.30;;
47589;SDS011;33316;52.298;9.056;2023-01-16T13:07:51;0.43;;;0.38;;
47589;SDS011;33316;52.298;9.056;2023-01-16T13:10:24;1.10;;;0.40;;
47589;SDS011;33316;52.298;9.056;2023-01-16T13:13:13;0.73;;;0.40;;
47589;SDS011;33316;52.298;9.056;2023-01-16T13:15:58;1.13;;;0.40;;
47589;SDS011;33316;52.298;9.056;2023-01-16T13:18:29;1.88;;;0.40;;
47589;SDS011;33316;52.298;9.056;2023-01-16T13:21:02;0.47;;;0.30;;
47589;SDS011;33316;52.298;9.056;2023-01-16T13:23:32;1.13;;;0.40;;
47589;SDS011;33316;52.298;9.056;2023-01-16T13:26:07;0.30;;;0.30;;
47589;SDS011;33316;52.298;9.056;2023-01-16T13:31:12;0.50;;;0.30;;
47589;SDS011;33316;52.298;9.056;2023-01-16T13:33:44;0.60;;;0.40;;
47589;SDS011;33316;52.298;9.056;2023-01-16T13:36:16;1.45;;;0.40;;
47589;SDS011;33316;52.298;9.056;2023-01-16T13:38:59;2.97;;;0.60;;
47589;SDS011;33316;52.298;9.056;2023-01-16T13:41:42;0.82;;;0.30;;
47589;SDS011;33316;52.298;9.056;2023-01-16T13:44:12;1.00;;;0.60;;
47589;SDS011;33316;52.298;9.056;2023-01-16T13:47:02;1.40;;;0.40;;
47589;SDS011;33316;52.298;9.056;2023-01-16T13:51:59;0.55;;;0.35;;
47589;SDS011;33316;52.298;9.056;2023-01-16T13:54:30;0.93;;;0.40;;
47589;SDS011;33316;52.298;9.056;2023-01-16T13:57:11;0.65;;;0.30;;
47589;SDS011;33316;52.298;9.056;2023-01-16T13:59:44;1.73;;;0.52;;
47589;SDS011;33316;52.298;9.056;2023-01-16T14:02:24;1.65;;;0.40;;
47589;SDS011;33316;52.298;9.056;2023-01-16T14:05:22;0.35;;;0.30;;
47589;SDS011;33316;52.298;9.056;2023-01-16T14:08:04;0.57;;;0.47;;
47589;SDS011;33316;52.298;9.056;2023-01-16T14:11:14;0.60;;;0.32;;
47589;SDS011;33316;52.298;9.056;2023-01-16T14:13:49;0.55;;;0.40;;
47589;SDS011;33316;52.298;9.056;2023-01-16T14:17:07;0.68;;;0.30;;
47589;SDS011;33316;52.298;9.056;2023-01-16T14:19:34;0.50;;;0.40;;
47589;SDS011;33316;52.298;9.056;2023-01-16T14:22:03;1.80;;;0.57;;
47589;SDS011;33316;52.298;9.056;2023-01-16T14:24:45;0.55;;;0.35;;
47589;SDS011;33316;52.298;9.056;2023-01-16T14:27:15;1.13;;;0.50;;
47589;SDS011;33316;52.298;9.056;2023-01-16T14:29:46;1.95;;;0.30;;
47589;SDS011;33316;52.298;9.056;2023-01-16T14:32:16;1.75;;;0.50;;
47589;SDS011;33316;52.298;9.056;2023-01-16T14:34:48;0.43;;;0.38;;
47589;SDS011;33316;52.298;9.056;2023-01-16T14:37:19;0.60;;;0.40;;
47589;SDS011;33316;52.298;9.056;2023-01-16T14:39:49;0.50;;;0.38;;
47589;SDS011;33316;52.298;9.056;2023-01-16T14:42:18;1.73;;;0.57;;
47589;SDS011;33316;52.298;9.056;2023-01-16T14:45:17;0.80;;;0.47;;
47589;SDS011;33316;52.298;9.056;2023-01-16T14:48:11;0.90;;;0.40;;
47589;SDS011;33316;52.298;9.056;2023-01-16T14:51:00;0.93;;;0.50;;
47589;SDS011;33316;52.298;9.056;2023-01-16T14:53:51;1.10;;;0.68;;
47589;SDS011;33316;52.298;9.056;2023-01-16T14:56:39;0.73;;;0.40;;
47589;SDS011;33316;52.298;9.056;2023-01-16T14:59:07;0.82;;;0.40;;
47589;SDS011;33316;52.298;9.056;2023-01-16T15:01:41;0.50;;;0.50;;
47589;SDS011;33316;52.298;9.056;2023-01-16T15:04:31;0.73;;;0.47;;
47589;SDS011;33316;52.298;9.056;2023-01-16T15:07:05;0.80;;;0.40;;
47589;SDS011;33316;52.298;9.056;2023-01-16T15:09:32;0.43;;;0.38;;
47589;SDS011;33316;52.298;9.056;2023-01-16T15:12:07;1.93;;;0.40;;
47589;SDS011;33316;52.298;9.056;2023-01-16T15:14:37;0.70;;;0.40;;
47589;SDS011;33316;52.298;9.056;2023-01-16T15:17:16;1.67;;;0.40;;
47589;SDS011;33316;52.298;9.056;2023-01-16T15:20:09;0.45;;;0.35;;
47589;SDS011;33316;52.298;9.056;2023-01-16T15:23:05;0.52;;;0.30;;
47589;SDS011;33316;52.298;9.056;2023-01-16T15:25:48;0.60;;;0.32;;
47589;SDS011;33316;52.298;9.056;2023-01-16T15:28:38;1.17;;;0.47;;
47589;SDS011;33316;52.298;9.056;2023-01-16T15:31:14;1.13;;;0.43;;
47589;SDS011;33316;52.298;9.056;2023-01-16T15:33:44;0.40;;;0.40;;
47589;SDS011;33316;52.298;9.056;2023-01-16T15:36:17;0.63;;;0.30;;
47589;SDS011;33316;52.298;9.056;2023-01-16T15:38:47;0.45;;;0.38;;
47589;SDS011;33316;52.298;9.056;2023-01-16T15:41:19;1.33;;;0.43;;
47589;SDS011;33316;52.298;9.056;2023-01-16T15:44:10;0.30;;;0.30;;
47589;SDS011;33316;52.298;9.056;2023-01-16T15:47:00;0.73;;;0.40;;
47589;SDS011;33316;52.298;9.056;2023-01-16T15:49:43;0.35;;;0.35;;
47589;SDS011;33316;52.298;9.056;2023-01-16T15:52:16;0.77;;;0.50;;
47589;SDS011;33316;52.298;9.056;2023-01-16T15:54:43;0.50;;;0.50;;
47589;SDS011;33316;52.298;9.056;2023-01-16T15:57:13;0.40;;;0.40;;
47589;SDS011;33316;52.298;9.056;2023-01-16T15:59:49;0.70;;;0.45;;
47589;SDS011;33316;52.298;9.056;2023-01-16T16:02:17;0.60;;;0.45;;
47589;SDS011;33316;52.298;9.056;2023-01-16T16:04:46;0.50;;;0.50;;